Time;durP1;ratioP1;P1;durP2;ratioP2;P2;SDS_P1;SDS_P2;PMS_P1;PMS_P2;Temp;Humidity;BMP_temperature;BMP_pressure;BME280_temperature;BME280_humidity;BME280_pressure;Samples;Min_cycle;Max_cycle;Signal;HPM_P1;HPM_P2
2022/09/14 00:00:50;;;;;;;;;;;16.30;99.90;;;;;;4981615;28;20403;-66
2022/09/14 00:03:17;;;;;;;;;;;16.30;99.90;;;;;;4981708;28;19926;-65
2022/09/14 00:05:45;;;;;;;;;;;16.30;99.90;;;;;;4978818;28;20431;-66
2022/09/14 00:08:11;;;;;;;;;;;16.30;99.90;;;;;;4978811;28;19930;-66
2022/09/14 00:10:39;;;;;;;;;;;16.30;99.90;;;;;;4980595;28;19926;-66
2022/09/14 00:13:06;;;;;;;;;;;16.30;99.90;;;;;;4977970;28;20016;-66
2022/09/14 00:15:34;;;;;;;;;;;16.20;99.90;;;;;;4981503;28;20489;-66
2022/09/14 00:18:03;;;;;;;;;;;16.20;99.90;;;;;;4985611;28;19925;-67
2022/09/14 00:20:29;;;;;;;;;;;16.10;99.90;;;;;;4980989;28;20056;-66
2022/09/14 00:22:56;;;;;;;;;;;16.20;99.90;;;;;;4982544;28;19926;-65
2022/09/14 00:25:25;;;;;;;;;;;16.10;99.90;;;;;;4982445;28;19983;-66
2022/09/14 00:27:52;;;;;;;;;;;16.10;99.90;;;;;;4983945;28;20279;-64
2022/09/14 00:30:18;;;;;;;;;;;16.10;99.90;;;;;;4986173;28;20029;-66
2022/09/14 00:32:45;;;;;;;;;;;16.10;99.90;;;;;;4973660;28;19930;-66
2022/09/14 00:35:13;;;;;;;;;;;16.10;99.90;;;;;;4979155;28;19926;-66
2022/09/14 00:37:40;;;;;;;;;;;16.00;99.90;;;;;;4976128;28;19926;-67
2022/09/14 00:40:07;;;;;;;;;;;16.00;99.90;;;;;;4978484;28;19926;-67
2022/09/14 00:42:33;;;;;;;;;;;16.00;99.90;;;;;;4976079;28;20006;-66
2022/09/14 00:45:02;;;;;;;;;;;16.00;99.90;;;;;;4974415;28;19926;-67
2022/09/14 00:47:30;;;;;;;;;;;15.90;99.90;;;;;;4977182;28;20821;-67
2022/09/14 00:49:57;;;;;;;;;;;16.00;99.90;;;;;;4985905;28;20032;-67
2022/09/14 00:52:28;;;;;;;;;;;16.00;99.90;;;;;;4980877;28;19934;-66
2022/09/14 00:54:56;;;;;;;;;;;16.00;99.90;;;;;;4972757;28;20353;-66
2022/09/14 00:57:24;;;;;;;;;;;15.90;99.90;;;;;;4975690;28;20316;-66
2022/09/14 00:59:52;;;;;;;;;;;15.90;99.90;;;;;;4976334;28;20296;-66
2022/09/14 01:02:20;;;;;;;;;;;15.90;99.90;;;;;;4981770;28;19956;-66
2022/09/14 01:04:47;;;;;;;;;;;15.90;99.90;;;;;;4983545;28;20579;-66
2022/09/14 01:07:18;;;;;;;;;;;15.90;99.90;;;;;;4980705;28;20578;-66
2022/09/14 01:09:52;;;;;;;;;;;15.90;99.90;;;;;;4985494;28;19930;-64
2022/09/14 01:12:23;;;;;;;;;;;15.90;99.90;;;;;;4975130;28;19983;-66
2022/09/14 01:14:53;;;;;;;;;;;15.90;99.90;;;;;;4978477;28;20368;-66
2022/09/14 01:17:22;;;;;;;;;;;15.90;99.90;;;;;;4979447;28;19934;-66
2022/09/14 01:20:04;;;;;;;;;;;15.90;99.90;;;;;;4982823;28;20016;-66
2022/09/14 01:22:34;;;;;;;;;;;15.90;99.90;;;;;;4981120;28;19938;-64
2022/09/14 01:25:11;;;;;;;;;;;15.90;99.90;;;;;;4977220;28;20024;-64
2022/09/14 01:27:42;;;;;;;;;;;16.00;99.90;;;;;;4976377;28;19926;-65
2022/09/14 01:30:10;;;;;;;;;;;15.90;99.90;;;;;;4985120;28;19930;-65
2022/09/14 01:32:42;;;;;;;;;;;15.90;99.90;;;;;;4976928;28;20012;-65
2022/09/14 01:35:12;;;;;;;;;;;15.90;99.90;;;;;;4975407;28;19932;-65
2022/09/14 01:37:41;;;;;;;;;;;15.90;99.90;;;;;;4977943;28;19934;-65
2022/09/14 01:40:11;;;;;;;;;;;15.90;99.90;;;;;;4978502;28;19953;-64
2022/09/14 01:42:40;;;;;;;;;;;15.90;99.90;;;;;;4977195;28;19942;-65
2022/09/14 01:45:09;;;;;;;;;;;15.90;99.90;;;;;;4980372;28;19964;-65
2022/09/14 01:47:37;;;;;;;;;;;15.90;99.90;;;;;;4977084;28;19930;-64
2022/09/14 01:50:07;;;;;;;;;;;15.90;99.90;;;;;;4977952;28;20261;-64
2022/09/14 01:52:35;;;;;;;;;;;15.90;99.90;;;;;;4971422;28;19929;-65
2022/09/14 01:55:05;;;;;;;;;;;15.90;99.90;;;;;;4986771;28;19926;-65
2022/09/14 01:57:34;;;;;;;;;;;15.90;99.90;;;;;;4979047;28;19932;-65
2022/09/14 02:00:05;;;;;;;;;;;15.90;99.90;;;;;;4978304;28;19932;-65
2022/09/14 02:02:34;;;;;;;;;;;15.90;99.90;;;;;;4979659;28;19926;-64
2022/09/14 02:05:03;;;;;;;;;;;15.90;99.90;;;;;;4985631;28;19929;-64
2022/09/14 02:07:30;;;;;;;;;;;15.80;99.90;;;;;;4980157;28;19925;-64
2022/09/14 02:09:58;;;;;;;;;;;15.80;99.90;;;;;;4977494;28;20462;-64
2022/09/14 02:12:24;;;;;;;;;;;15.80;99.90;;;;;;4986745;28;19930;-64
2022/09/14 02:14:53;;;;;;;;;;;15.80;99.90;;;;;;4970264;28;20300;-64
2022/09/14 02:17:21;;;;;;;;;;;15.80;99.90;;;;;;4982998;28;19967;-64
2022/09/14 02:19:49;;;;;;;;;;;15.80;99.90;;;;;;4976628;28;20005;-64
2022/09/14 02:22:16;;;;;;;;;;;15.80;99.90;;;;;;4975625;28;20308;-64
2022/09/14 02:24:42;;;;;;;;;;;15.80;99.90;;;;;;4981958;28;20352;-64
2022/09/14 02:27:09;;;;;;;;;;;15.80;99.90;;;;;;4980481;28;19933;-64
2022/09/14 02:29:36;;;;;;;;;;;15.70;99.90;;;;;;4984800;28;19933;-64
2022/09/14 02:32:07;;;;;;;;;;;15.70;99.90;;;;;;4979923;28;19932;-64
2022/09/14 02:34:39;;;;;;;;;;;15.70;99.90;;;;;;4982834;28;19941;-64
2022/09/14 02:37:10;;;;;;;;;;;15.70;99.90;;;;;;4981131;28;19930;-64
2022/09/14 02:39:41;;;;;;;;;;;15.70;99.90;;;;;;4984786;28;19926;-64
2022/09/14 02:42:22;;;;;;;;;;;15.60;99.90;;;;;;4985711;28;19926;-64
2022/09/14 02:44:54;;;;;;;;;;;15.60;99.90;;;;;;4982579;28;20005;-64
2022/09/14 02:47:23;;;;;;;;;;;15.50;99.90;;;;;;4977917;28;19926;-64
2022/09/14 02:49:56;;;;;;;;;;;15.60;99.90;;;;;;4979187;28;20348;-64
2022/09/14 02:52:27;;;;;;;;;;;15.50;99.90;;;;;;4973024;28;20377;-65
2022/09/14 02:54:56;;;;;;;;;;;15.40;99.90;;;;;;4981767;28;19933;-65
2022/09/14 02:57:23;;;;;;;;;;;15.40;99.90;;;;;;4979725;28;20021;-64
2022/09/14 02:59:49;;;;;;;;;;;15.40;99.90;;;;;;4981646;28;19926;-64
2022/09/14 03:02:16;;;;;;;;;;;15.40;99.90;;;;;;4979446;28;20384;-64
2022/09/14 03:04:43;;;;;;;;;;;15.40;99.90;;;;;;4979755;28;19926;-64
2022/09/14 03:07:11;;;;;;;;;;;15.40;99.90;;;;;;4978402;28;20281;-64
2022/09/14 03:09:37;;;;;;;;;;;15.40;99.90;;;;;;4983148;28;20365;-64
2022/09/14 03:12:04;;;;;;;;;;;15.30;99.90;;;;;;4981364;28;20244;-64
2022/09/14 03:14:31;;;;;;;;;;;15.30;99.90;;;;;;4981029;28;19925;-64
2022/09/14 03:16:57;;;;;;;;;;;15.30;99.90;;;;;;4972374;28;19933;-64
2022/09/14 03:19:24;;;;;;;;;;;15.30;99.90;;;;;;4987347;28;19925;-65
2022/09/14 03:21:50;;;;;;;;;;;15.30;99.90;;;;;;4976607;28;19926;-64
2022/09/14 03:24:18;;;;;;;;;;;15.30;99.90;;;;;;4984993;28;20002;-65
2022/09/14 03:26:46;;;;;;;;;;;15.20;99.90;;;;;;4983101;28;19933;-65
2022/09/14 03:29:12;;;;;;;;;;;15.30;99.90;;;;;;4977834;28;20277;-64
2022/09/14 03:31:39;;;;;;;;;;;15.20;99.90;;;;;;4985964;28;19934;-64
2022/09/14 03:34:06;;;;;;;;;;;15.20;99.90;;;;;;4982244;28;19926;-64
2022/09/14 03:36:32;;;;;;;;;;;15.30;99.90;;;;;;4981824;28;20008;-65
2022/09/14 03:39:00;;;;;;;;;;;15.20;99.90;;;;;;4987070;28;19925;-65
2022/09/14 03:41:29;;;;;;;;;;;15.20;99.90;;;;;;4982868;28;20300;-64
2022/09/14 03:43:55;;;;;;;;;;;15.20;99.90;;;;;;4984591;28;19926;-64
2022/09/14 03:46:24;;;;;;;;;;;15.20;99.90;;;;;;4975793;28;19930;-64
2022/09/14 03:48:51;;;;;;;;;;;15.20;99.90;;;;;;4982988;28;19973;-64
2022/09/14 03:51:18;;;;;;;;;;;15.20;99.90;;;;;;4975486;28;19995;-64
2022/09/14 03:53:44;;;;;;;;;;;15.10;99.90;;;;;;4977924;28;19926;-64
2022/09/14 03:56:12;;;;;;;;;;;15.10;99.90;;;;;;4975724;28;19933;-64
2022/09/14 03:58:40;;;;;;;;;;;15.10;99.90;;;;;;4983305;28;20100;-64
2022/09/14 04:01:08;;;;;;;;;;;15.00;99.90;;;;;;4984123;28;19964;-64
2022/09/14 04:03:35;;;;;;;;;;;15.10;99.90;;;;;;4985196;28;19926;-63
2022/09/14 04:06:04;;;;;;;;;;;15.10;99.90;;;;;;4974649;28;20035;-63
2022/09/14 04:08:31;;;;;;;;;;;15.00;99.90;;;;;;4974753;28;19932;-63
2022/09/14 04:10:57;;;;;;;;;;;14.90;99.90;;;;;;4980724;28;20032;-63
2022/09/14 04:13:24;;;;;;;;;;;14.90;99.90;;;;;;4977667;28;19926;-63
2022/09/14 04:15:59;;;;;;;;;;;14.90;99.90;;;;;;4982152;28;19926;-63
2022/09/14 04:18:26;;;;;;;;;;;14.90;99.90;;;;;;4981627;28;19926;-65
2022/09/14 04:20:56;;;;;;;;;;;14.90;99.90;;;;;;4986583;28;20407;-65
2022/09/14 04:23:23;;;;;;;;;;;14.90;99.90;;;;;;4979895;28;19930;-63
2022/09/14 04:25:50;;;;;;;;;;;14.80;99.90;;;;;;4978376;28;19979;-64
2022/09/14 04:28:16;;;;;;;;;;;14.80;99.90;;;;;;4984838;28;20550;-63
2022/09/14 04:30:43;;;;;;;;;;;14.80;99.90;;;;;;4984129;28;20009;-63
2022/09/14 04:33:11;;;;;;;;;;;14.90;99.90;;;;;;5011538;28;19930;-63
2022/09/14 04:35:37;;;;;;;;;;;14.80;99.90;;;;;;4983690;28;19926;-63
2022/09/14 04:38:04;;;;;;;;;;;14.80;99.90;;;;;;4983316;28;19936;-63
2022/09/14 04:40:31;;;;;;;;;;;14.70;99.90;;;;;;4975822;28;19926;-64
2022/09/14 04:42:57;;;;;;;;;;;14.70;99.90;;;;;;4985818;28;19934;-64
2022/09/14 04:45:25;;;;;;;;;;;14.70;99.90;;;;;;4984354;28;20021;-64
2022/09/14 04:47:53;;;;;;;;;;;14.70;99.90;;;;;;4976718;28;19926;-63
2022/09/14 04:50:21;;;;;;;;;;;14.70;99.90;;;;;;4979481;28;20392;-64
2022/09/14 04:52:48;;;;;;;;;;;14.70;99.90;;;;;;4980698;28;19933;-63
2022/09/14 04:55:14;;;;;;;;;;;14.70;99.90;;;;;;4976870;28;20410;-63
2022/09/14 04:57:41;;;;;;;;;;;14.70;99.90;;;;;;4970820;28;19926;-64
2022/09/14 05:00:08;;;;;;;;;;;14.70;99.90;;;;;;4981857;28;19925;-64
2022/09/14 05:02:39;;;;;;;;;;;14.60;99.90;;;;;;4979895;28;19926;-63
2022/09/14 05:05:06;;;;;;;;;;;14.60;99.90;;;;;;4981240;28;19926;-64
2022/09/14 05:07:34;;;;;;;;;;;14.70;99.90;;;;;;4973562;28;19940;-64
2022/09/14 05:10:01;;;;;;;;;;;14.60;99.90;;;;;;4975874;28;19941;-63
2022/09/14 05:12:29;;;;;;;;;;;14.60;99.90;;;;;;4971933;28;20028;-64
2022/09/14 05:14:55;;;;;;;;;;;14.60;99.90;;;;;;4982702;28;19984;-63
2022/09/14 05:17:22;;;;;;;;;;;14.60;99.90;;;;;;4977896;28;20041;-64
2022/09/14 05:19:49;;;;;;;;;;;14.60;99.90;;;;;;4977867;28;19925;-63
2022/09/14 05:22:16;;;;;;;;;;;14.60;99.90;;;;;;4977622;28;20049;-63
2022/09/14 05:24:44;;;;;;;;;;;14.60;99.90;;;;;;4978053;28;19926;-66
2022/09/14 05:27:10;;;;;;;;;;;14.60;99.90;;;;;;4985945;28;19934;-63
2022/09/14 05:29:39;;;;;;;;;;;14.60;99.90;;;;;;4977165;28;20021;-64
2022/09/14 05:32:05;;;;;;;;;;;14.50;99.90;;;;;;4980126;28;20381;-63
2022/09/14 05:34:32;;;;;;;;;;;14.50;99.90;;;;;;4982438;28;20970;-64
2022/09/14 05:36:58;;;;;;;;;;;14.50;99.90;;;;;;4983349;28;20446;-64
2022/09/14 05:39:25;;;;;;;;;;;14.50;99.90;;;;;;4979095;28;20353;-64
2022/09/14 05:41:53;;;;;;;;;;;14.50;99.90;;;;;;4983607;28;20579;-67
2022/09/14 05:44:20;;;;;;;;;;;14.50;99.90;;;;;;4977830;28;19930;-64
2022/09/14 05:46:47;;;;;;;;;;;14.40;99.90;;;;;;4983987;28;19925;-64
2022/09/14 05:49:13;;;;;;;;;;;14.50;99.90;;;;;;4981844;28;20070;-63
2022/09/14 05:51:40;;;;;;;;;;;14.40;99.90;;;;;;4981126;28;19926;-63
2022/09/14 05:54:10;;;;;;;;;;;14.40;99.90;;;;;;4976871;28;19948;-64
2022/09/14 05:56:37;;;;;;;;;;;14.40;99.90;;;;;;4974189;28;19972;-64
2022/09/14 05:59:05;;;;;;;;;;;14.40;99.90;;;;;;4974869;28;19932;-64
2022/09/14 06:01:32;;;;;;;;;;;14.40;99.90;;;;;;4980619;28;20417;-64
2022/09/14 06:04:01;;;;;;;;;;;14.40;99.90;;;;;;4978817;28;19926;-64
2022/09/14 06:06:28;;;;;;;;;;;14.40;99.90;;;;;;4976514;28;19934;-64
2022/09/14 06:08:56;;;;;;;;;;;14.50;99.90;;;;;;4982561;28;20009;-64
2022/09/14 06:11:23;;;;;;;;;;;14.50;99.90;;;;;;4983626;28;20066;-65
2022/09/14 06:13:50;;;;;;;;;;;14.50;99.90;;;;;;4981973;28;19929;-64
2022/09/14 06:16:19;;;;;;;;;;;14.40;99.90;;;;;;4984354;28;19926;-63
2022/09/14 06:18:46;;;;;;;;;;;14.50;99.90;;;;;;4982827;28;19960;-64
2022/09/14 06:21:16;;;;;;;;;;;14.40;99.90;;;;;;4981974;28;19925;-63
2022/09/14 06:23:43;;;;;;;;;;;14.50;99.90;;;;;;4981900;28;19926;-63
2022/09/14 06:26:10;;;;;;;;;;;14.50;99.90;;;;;;4974904;28;19930;-63
2022/09/14 06:28:36;;;;;;;;;;;14.50;99.90;;;;;;4975699;28;20288;-64
2022/09/14 06:31:06;;;;;;;;;;;14.50;99.90;;;;;;4985207;28;19926;-64
2022/09/14 06:33:34;;;;;;;;;;;14.50;99.90;;;;;;4983771;28;19926;-65
2022/09/14 06:36:02;;;;;;;;;;;14.50;99.90;;;;;;4979530;28;19926;-64
2022/09/14 06:38:29;;;;;;;;;;;14.50;99.90;;;;;;4977378;28;20020;-63
2022/09/14 06:40:56;;;;;;;;;;;14.40;99.90;;;;;;4983730;28;19929;-63
2022/09/14 06:43:23;;;;;;;;;;;14.40;99.90;;;;;;4986479;28;20316;-64
2022/09/14 06:45:57;;;;;;;;;;;14.40;99.90;;;;;;4980652;28;19930;-64
2022/09/14 06:48:24;;;;;;;;;;;14.50;99.90;;;;;;4972594;28;19934;-64
2022/09/14 06:50:52;;;;;;;;;;;14.50;99.90;;;;;;4979270;28;20009;-63
2022/09/14 06:53:18;;;;;;;;;;;14.40;99.90;;;;;;4978007;28;19951;-64
2022/09/14 06:55:45;;;;;;;;;;;14.40;99.90;;;;;;4979320;28;19926;-64
2022/09/14 06:58:12;;;;;;;;;;;14.50;99.90;;;;;;4978832;28;19926;-64
2022/09/14 07:00:39;;;;;;;;;;;14.50;99.90;;;;;;4982399;28;19926;-64
2022/09/14 07:03:05;;;;;;;;;;;14.50;99.90;;;;;;4979333;28;19930;-64
2022/09/14 07:05:38;;;;;;;;;;;14.50;99.90;;;;;;4981112;28;19930;-64
2022/09/14 07:08:06;;;;;;;;;;;14.50;99.90;;;;;;4977116;28;19941;-64
2022/09/14 07:10:32;;;;;;;;;;;14.40;99.90;;;;;;4976342;28;19926;-64
2022/09/14 07:13:00;;;;;;;;;;;14.40;99.90;;;;;;4981681;28;20002;-64
2022/09/14 07:15:26;;;;;;;;;;;14.40;99.90;;;;;;4980250;28;20056;-64
2022/09/14 07:17:53;;;;;;;;;;;14.40;99.90;;;;;;4971139;28;19948;-64
2022/09/14 07:20:20;;;;;;;;;;;14.40;99.90;;;;;;4970851;28;19934;-64
2022/09/14 07:22:46;;;;;;;;;;;14.40;99.90;;;;;;4979541;28;19930;-65
2022/09/14 07:25:15;;;;;;;;;;;14.40;99.90;;;;;;4984571;28;19934;-64
2022/09/14 07:27:42;;;;;;;;;;;14.40;99.90;;;;;;4973356;28;19926;-64
2022/09/14 07:30:09;;;;;;;;;;;14.50;99.90;;;;;;4971696;28;20335;-64
2022/09/14 07:32:35;;;;;;;;;;;14.40;99.90;;;;;;4982216;28;19926;-65
2022/09/14 07:35:02;;;;;;;;;;;14.50;99.90;;;;;;4977860;28;19958;-64
2022/09/14 07:37:29;;;;;;;;;;;14.50;99.90;;;;;;4972404;28;19926;-64
2022/09/14 07:39:56;;;;;;;;;;;14.50;99.90;;;;;;4983274;28;19948;-64
2022/09/14 07:42:24;;;;;;;;;;;14.60;99.90;;;;;;4971607;28;19930;-64
2022/09/14 07:44:50;;;;;;;;;;;14.50;99.90;;;;;;4979729;28;19934;-64
2022/09/14 07:47:17;;;;;;;;;;;14.50;99.90;;;;;;4973353;28;20017;-65
2022/09/14 07:49:44;;;;;;;;;;;14.50;99.90;;;;;;4977453;28;19926;-65
2022/09/14 07:52:11;;;;;;;;;;;14.50;99.90;;;;;;4984022;28;19930;-64
2022/09/14 07:54:38;;;;;;;;;;;14.50;99.90;;;;;;4979039;28;19930;-64
2022/09/14 07:57:04;;;;;;;;;;;14.50;99.90;;;;;;4980235;28;19929;-64
2022/09/14 07:59:33;;;;;;;;;;;14.50;99.90;;;;;;4981121;28;19926;-64
2022/09/14 08:02:00;;;;;;;;;;;14.50;99.90;;;;;;4983203;28;19925;-64
2022/09/14 08:04:26;;;;;;;;;;;14.50;99.90;;;;;;4982367;28;20005;-64
2022/09/14 08:06:53;;;;;;;;;;;14.40;99.90;;;;;;4984655;28;19926;-63
2022/09/14 08:09:19;;;;;;;;;;;14.50;99.90;;;;;;4985083;28;20001;-63
2022/09/14 08:11:46;;;;;;;;;;;14.50;99.90;;;;;;4978734;28;19926;-63
2022/09/14 08:14:14;;;;;;;;;;;14.40;99.90;;;;;;4984973;28;20375;-63
2022/09/14 08:16:42;;;;;;;;;;;14.40;99.90;;;;;;4984637;28;19972;-65
2022/09/14 08:19:11;;;;;;;;;;;14.40;99.90;;;;;;4987871;28;20467;-65
2022/09/14 08:21:38;;;;;;;;;;;14.50;99.90;;;;;;4984049;28;20403;-65
2022/09/14 08:24:05;;;;;;;;;;;14.40;99.90;;;;;;4981894;28;19926;-66
2022/09/14 08:26:35;;;;;;;;;;;14.50;99.90;;;;;;4975105;28;20274;-64
2022/09/14 08:29:03;;;;;;;;;;;14.40;99.90;;;;;;4978286;28;20428;-64
2022/09/14 08:31:30;;;;;;;;;;;14.30;99.90;;;;;;4981945;28;19933;-64
2022/09/14 08:33:59;;;;;;;;;;;14.40;99.90;;;;;;4981924;28;19934;-64
2022/09/14 08:36:27;;;;;;;;;;;14.40;99.90;;;;;;4980766;28;19977;-65
2022/09/14 08:38:53;;;;;;;;;;;14.40;99.90;;;;;;4975771;28;19926;-65
2022/09/14 08:41:26;;;;;;;;;;;14.50;99.90;;;;;;4980323;28;20012;-64
2022/09/14 08:43:53;;;;;;;;;;;14.50;99.90;;;;;;4978240;28;19949;-63
2022/09/14 08:46:28;;;;;;;;;;;14.50;99.90;;;;;;4975137;28;19930;-64
2022/09/14 08:48:54;;;;;;;;;;;14.60;99.90;;;;;;4975665;28;19933;-63
2022/09/14 08:51:22;;;;;;;;;;;14.60;99.90;;;;;;4976395;28;19930;-64
2022/09/14 08:53:51;;;;;;;;;;;14.60;99.90;;;;;;4978692;28;19926;-63
2022/09/14 08:56:18;;;;;;;;;;;14.60;99.90;;;;;;4973389;28;20007;-62
2022/09/14 08:58:53;;;;;;;;;;;14.60;99.90;;;;;;4979966;28;20274;-63
2022/09/14 09:01:23;;;;;;;;;;;14.70;99.90;;;;;;4976612;28;20028;-62
2022/09/14 09:04:04;;;;;;;;;;;14.70;99.90;;;;;;4980298;28;19934;-63
2022/09/14 09:06:37;;;;;;;;;;;14.60;99.90;;;;;;4980570;28;19926;-63
2022/09/14 09:09:07;;;;;;;;;;;14.60;99.90;;;;;;4979727;28;20304;-62
2022/09/14 09:11:37;;;;;;;;;;;14.70;99.90;;;;;;4982676;28;19965;-61
2022/09/14 09:14:08;;;;;;;;;;;14.70;99.90;;;;;;4982872;28;19951;-62
2022/09/14 09:16:37;;;;;;;;;;;14.60;99.90;;;;;;4985649;28;20334;-62
2022/09/14 09:19:07;;;;;;;;;;;14.70;99.90;;;;;;4985116;28;19933;-62
2022/09/14 09:21:38;;;;;;;;;;;14.70;99.90;;;;;;4987081;28;19929;-62
2022/09/14 09:24:16;;;;;;;;;;;14.60;99.90;;;;;;4979342;28;20377;-62
2022/09/14 09:26:42;;;;;;;;;;;14.70;99.90;;;;;;4978467;28;19925;-62
2022/09/14 09:29:09;;;;;;;;;;;14.70;99.90;;;;;;4986229;28;19926;-61
2022/09/14 09:31:38;;;;;;;;;;;14.60;99.90;;;;;;4974798;28;20381;-62
2022/09/14 09:34:05;;;;;;;;;;;14.70;99.90;;;;;;4980282;28;20122;-63
2022/09/14 09:36:34;;;;;;;;;;;14.60;99.90;;;;;;4981917;28;19926;-63
2022/09/14 09:39:02;;;;;;;;;;;14.70;99.90;;;;;;4974058;28;19981;-63
2022/09/14 09:41:31;;;;;;;;;;;14.70;99.90;;;;;;4974272;28;20013;-62
2022/09/14 09:43:59;;;;;;;;;;;14.70;99.90;;;;;;4976155;28;19934;-62
2022/09/14 09:46:27;;;;;;;;;;;14.70;99.90;;;;;;4975657;28;19927;-61
2022/09/14 09:48:54;;;;;;;;;;;14.70;99.90;;;;;;4979295;28;20357;-62
2022/09/14 09:51:26;;;;;;;;;;;14.80;99.90;;;;;;4975607;28;19926;-62
2022/09/14 09:53:55;;;;;;;;;;;14.80;99.90;;;;;;4978276;28;20040;-62
2022/09/14 09:56:25;;;;;;;;;;;14.80;99.90;;;;;;4973485;28;19957;-63
2022/09/14 09:58:52;;;;;;;;;;;14.80;99.90;;;;;;4976839;28;20036;-63
2022/09/14 10:01:20;;;;;;;;;;;14.70;99.90;;;;;;4975853;28;19933;-62
2022/09/14 10:03:59;;;;;;;;;;;14.70;99.90;;;;;;4970505;28;20044;-63
2022/09/14 10:06:26;;;;;;;;;;;14.80;99.90;;;;;;4978948;28;19932;-63
2022/09/14 10:08:53;;;;;;;;;;;14.80;99.90;;;;;;4974998;28;19926;-63
2022/09/14 10:11:36;;;;;;;;;;;14.80;99.90;;;;;;4985898;28;20378;-62
2022/09/14 10:14:04;;;;;;;;;;;14.80;99.90;;;;;;4980429;28;19930;-63
2022/09/14 10:16:33;;;;;;;;;;;14.80;99.90;;;;;;4978363;28;19925;-63
2022/09/14 10:19:02;;;;;;;;;;;14.80;99.90;;;;;;4979659;28;19926;-63
2022/09/14 10:21:30;;;;;;;;;;;14.90;99.90;;;;;;4978875;28;20418;-63
2022/09/14 10:24:05;;;;;;;;;;;14.90;99.90;;;;;;4982511;28;20013;-63
2022/09/14 10:26:36;;;;;;;;;;;14.90;99.90;;;;;;4978420;28;20424;-63
2022/09/14 10:29:22;;;;;;;;;;;15.00;99.90;;;;;;4979490;28;19970;-63
2022/09/14 10:31:49;;;;;;;;;;;15.00;99.90;;;;;;4978722;28;20274;-64
2022/09/14 10:34:19;;;;;;;;;;;14.90;99.90;;;;;;4976478;28;19926;-64
2022/09/14 10:36:49;;;;;;;;;;;14.90;99.90;;;;;;4983091;28;19933;-63
2022/09/14 10:39:23;;;;;;;;;;;14.90;99.90;;;;;;4980405;28;20053;-63
2022/09/14 10:41:56;;;;;;;;;;;14.90;99.90;;;;;;4984216;28;19926;-63
2022/09/14 10:44:38;;;;;;;;;;;14.90;99.90;;;;;;4975392;28;19930;-63
2022/09/14 10:47:16;;;;;;;;;;;14.90;99.90;;;;;;4980016;28;20423;-63
2022/09/14 10:49:51;;;;;;;;;;;14.90;99.90;;;;;;4976267;28;19927;-64
2022/09/14 10:52:20;;;;;;;;;;;14.80;99.90;;;;;;4967366;28;19926;-64
2022/09/14 10:54:59;;;;;;;;;;;14.90;99.90;;;;;;4979674;28;20009;-63
2022/09/14 10:57:30;;;;;;;;;;;14.90;99.90;;;;;;4981649;28;19936;-64
2022/09/14 11:00:00;;;;;;;;;;;14.80;99.90;;;;;;4983124;28;20291;-64
2022/09/14 11:02:36;;;;;;;;;;;14.80;99.90;;;;;;4979170;28;19926;-64
2022/09/14 11:05:10;;;;;;;;;;;14.80;99.90;;;;;;4975609;28;20406;-65
2022/09/14 11:07:42;;;;;;;;;;;14.80;99.90;;;;;;4976142;28;19976;-66
2022/09/14 11:10:15;;;;;;;;;;;14.80;99.90;;;;;;4975545;28;20381;-65
2022/09/14 11:12:46;;;;;;;;;;;14.80;99.90;;;;;;4973220;28;19970;-65
2022/09/14 11:15:18;;;;;;;;;;;14.90;99.90;;;;;;4973150;28;20431;-63
2022/09/14 11:17:50;;;;;;;;;;;15.00;99.90;;;;;;4979401;28;19934;-63
2022/09/14 11:20:24;;;;;;;;;;;15.00;99.90;;;;;;4983516;28;19932;-63
2022/09/14 11:22:55;;;;;;;;;;;14.90;99.90;;;;;;4983913;28;19933;-64
2022/09/14 11:25:24;;;;;;;;;;;15.00;99.90;;;;;;4973024;28;19930;-63
2022/09/14 11:27:56;;;;;;;;;;;15.10;99.90;;;;;;4974324;28;20116;-63
2022/09/14 11:30:37;;;;;;;;;;;15.00;99.90;;;;;;4977558;28;19931;-63
2022/09/14 11:33:06;;;;;;;;;;;15.10;99.90;;;;;;4976526;28;19969;-63
2022/09/14 11:35:34;;;;;;;;;;;15.10;99.90;;;;;;4975349;28;19944;-64
2022/09/14 11:38:02;;;;;;;;;;;15.20;99.90;;;;;;4975594;28;19933;-64
2022/09/14 11:40:32;;;;;;;;;;;15.00;99.90;;;;;;4981276;28;19933;-64
2022/09/14 11:43:03;;;;;;;;;;;15.10;99.90;;;;;;4978295;28;19933;-64
2022/09/14 11:45:34;;;;;;;;;;;15.10;99.90;;;;;;4981241;28;19925;-65
2022/09/14 11:48:06;;;;;;;;;;;15.10;99.90;;;;;;4982544;28;20024;-64
2022/09/14 11:50:35;;;;;;;;;;;15.10;99.90;;;;;;4970721;28;19930;-66
2022/09/14 11:53:03;;;;;;;;;;;15.10;99.90;;;;;;4983226;28;19925;-63
2022/09/14 11:55:30;;;;;;;;;;;15.20;99.90;;;;;;4983108;28;20602;-63
2022/09/14 11:57:58;;;;;;;;;;;15.20;99.90;;;;;;4980958;28;19926;-64
2022/09/14 12:00:58;;;;;;;;;;;15.30;99.90;;;;;;4970923;28;20304;-64
2022/09/14 12:03:45;;;;;;;;;;;15.30;99.90;;;;;;4972644;28;19970;-64
2022/09/14 12:06:26;;;;;;;;;;;15.40;99.90;;;;;;4982495;28;20009;-64
2022/09/14 12:08:53;;;;;;;;;;;15.60;99.90;;;;;;4986620;28;19952;-64
2022/09/14 12:11:25;;;;;;;;;;;15.50;99.90;;;;;;4984762;28;19930;-63
2022/09/14 12:14:06;;;;;;;;;;;15.50;99.90;;;;;;4972981;28;19933;-64
2022/09/14 12:16:54;;;;;;;;;;;15.50;99.90;;;;;;4981025;28;20388;-64
2022/09/14 12:19:21;;;;;;;;;;;15.40;99.90;;;;;;4981715;28;20315;-64
2022/09/14 12:21:48;;;;;;;;;;;15.50;99.90;;;;;;4976024;28;19934;-64
2022/09/14 12:24:15;;;;;;;;;;;15.60;99.90;;;;;;4980063;28;20295;-64
2022/09/14 12:26:41;;;;;;;;;;;15.50;99.90;;;;;;4978137;28;20380;-64
2022/09/14 12:29:32;;;;;;;;;;;15.50;99.90;;;;;;4985140;28;20020;-64
2022/09/14 12:32:05;;;;;;;;;;;15.50;99.90;;;;;;4983812;28;19983;-64
2022/09/14 12:34:33;;;;;;;;;;;15.40;99.90;;;;;;4983877;28;20424;-65
2022/09/14 12:37:14;;;;;;;;;;;15.60;99.90;;;;;;4981587;28;19926;-64
2022/09/14 12:40:01;;;;;;;;;;;15.60;99.90;;;;;;4979121;28;19967;-64
2022/09/14 12:42:28;;;;;;;;;;;15.70;99.90;;;;;;4975837;28;19926;-64
2022/09/14 12:44:55;;;;;;;;;;;15.60;99.90;;;;;;4981102;28;20047;-63
2022/09/14 12:47:39;;;;;;;;;;;15.60;99.90;;;;;;4969185;28;19935;-63
2022/09/14 12:50:10;;;;;;;;;;;15.40;99.90;;;;;;4976444;28;20140;-63
2022/09/14 12:52:43;;;;;;;;;;;15.40;99.90;;;;;;4979560;28;19933;-64
2022/09/14 12:55:20;;;;;;;;;;;15.50;99.90;;;;;;4982649;28;19932;-65
2022/09/14 12:57:51;;;;;;;;;;;15.30;99.90;;;;;;4971347;28;20311;-64
2022/09/14 13:00:19;;;;;;;;;;;15.40;99.90;;;;;;4977315;28;20253;-64
2022/09/14 13:03:03;;;;;;;;;;;15.40;99.90;;;;;;4983714;28;19929;-64
2022/09/14 13:05:33;;;;;;;;;;;15.50;99.90;;;;;;4981623;28;19932;-64
2022/09/14 13:07:59;;;;;;;;;;;15.40;99.90;;;;;;4975314;28;19926;-64
2022/09/14 13:10:30;;;;;;;;;;;15.30;99.90;;;;;;4972498;28;20305;-64
2022/09/14 13:12:57;;;;;;;;;;;15.40;99.90;;;;;;4980601;28;19937;-66
2022/09/14 13:15:25;;;;;;;;;;;15.40;99.90;;;;;;4976567;28;19930;-66
2022/09/14 13:17:59;;;;;;;;;;;15.30;99.90;;;;;;4986582;28;19934;-65
2022/09/14 13:20:26;;;;;;;;;;;15.40;99.90;;;;;;4979575;28;19932;-64
2022/09/14 13:22:54;;;;;;;;;;;15.30;99.90;;;;;;4983281;28;19926;-65
2022/09/14 13:25:31;;;;;;;;;;;15.30;99.90;;;;;;4981757;28;19926;-65
2022/09/14 13:27:59;;;;;;;;;;;15.50;99.90;;;;;;4976295;28;20973;-63
2022/09/14 13:30:26;;;;;;;;;;;15.40;99.90;;;;;;4984889;28;20380;-63
2022/09/14 13:32:55;;;;;;;;;;;15.40;99.90;;;;;;4984235;28;19930;-63
2022/09/14 13:35:27;;;;;;;;;;;15.30;99.90;;;;;;4966362;28;20072;-63
2022/09/14 13:37:55;;;;;;;;;;;15.50;99.90;;;;;;4986429;28;20013;-63
2022/09/14 13:40:23;;;;;;;;;;;15.30;99.90;;;;;;4974821;28;19926;-64
2022/09/14 13:42:50;;;;;;;;;;;15.40;99.90;;;;;;4978044;28;19930;-64
2022/09/14 13:45:16;;;;;;;;;;;15.40;99.90;;;;;;4973904;28;19936;-63
2022/09/14 13:47:43;;;;;;;;;;;15.50;99.90;;;;;;4983216;28;20056;-64
2022/09/14 13:50:12;;;;;;;;;;;15.50;99.90;;;;;;4982121;28;20364;-64
2022/09/14 13:52:41;;;;;;;;;;;15.50;99.90;;;;;;4982480;28;19952;-64
2022/09/14 13:55:14;;;;;;;;;;;15.30;99.90;;;;;;4983695;28;19926;-64
2022/09/14 13:58:03;;;;;;;;;;;15.20;99.90;;;;;;4970032;28;19926;-63
2022/09/14 14:00:31;;;;;;;;;;;15.30;99.90;;;;;;4974499;28;19926;-64
2022/09/14 14:02:59;;;;;;;;;;;15.30;99.90;;;;;;4981931;28;19984;-64
2022/09/14 14:05:27;;;;;;;;;;;15.30;99.90;;;;;;4979253;28;19930;-64
2022/09/14 14:07:54;;;;;;;;;;;15.30;99.90;;;;;;4970864;28;19926;-65
2022/09/14 14:10:24;;;;;;;;;;;15.30;99.90;;;;;;4986972;28;19926;-64
2022/09/14 14:12:51;;;;;;;;;;;15.50;99.90;;;;;;4974768;28;20079;-64
2022/09/14 14:15:32;;;;;;;;;;;15.50;99.90;;;;;;4969649;28;20301;-64
2022/09/14 14:17:59;;;;;;;;;;;15.50;99.90;;;;;;4968707;28;20028;-65
2022/09/14 14:20:31;;;;;;;;;;;15.50;99.90;;;;;;4979657;28;19940;-64
2022/09/14 14:22:59;;;;;;;;;;;15.70;99.90;;;;;;4977276;28;19945;-63
2022/09/14 14:25:31;;;;;;;;;;;15.70;99.90;;;;;;4982937;28;19952;-63
2022/09/14 14:27:59;;;;;;;;;;;15.60;99.90;;;;;;4985405;28;19929;-63